Dehesa (DV1, 283, 6914) Station Data

Red Flag Warning: No
Fire Weather Zone: 250
SDGE Region: Eastern
Lat/Lon: 32.787/-116.835

Observations

Time Wind Speed/Gust Temp(F) RH Fuel Moist Fuel Temp(F) Dewpt(F) Tmax(F) Tmin(F) Accum Precip 10-min Precip SL Press(mb)
4/26 2:50am 62 2 G 4 51° 90% - - 49° 55.5° 51.2° - - -
4/26 2:40am 91 1 G 2 52° 85% - - 47° 55.5° 51.4° - - -
4/26 2:30am 102 0 G 2 52° 84% - - 47° 55.5° 51.8° - - -
4/26 2:20am 119 1 G 2 52° 83% - - 47° 55.5° 51.8° - - -
4/26 2:10am 91 1 G 2 52° 84% - - 48° 55.5° 52.1° - - -
4/26 2:00am 19 0 G 1 52° 83% - - 47° 55.5° 52.1° - - -
4/26 1:50am 318 2 G 5 53° 82% - - 47° 55.5° 52.2° - - -
4/26 1:40am 347 3 G 5 53° 81% - - 47° 55.5° 52.2° - - -
4/26 1:30am 24 4 G 5 53° 79% - - 47° 55.5° 52.3° - - -
4/26 1:20am 81 3 G 4 54° 77% - - 47° 55.5° 52.9° - - -
4/26 1:10am 124 0 G 2 54° 79% - - 47° 55.5° 52.9° - - -
4/26 1:00am 188 2 G 2 53° 79% - - 47° 55.5° 52.9° - - -
4/26 12:50am 299 1 G 2 53° 78% - - 47° 55.5° 53° - - -
4/26 12:40am 96 1 G 3 54° 75% - - 46° 55.5° 53.1° - - -
4/26 12:30am 352 2 G 4 55° 73% - - 46° 55.5° 54.3° - - -
4/26 12:20am 86 3 G 5 55° 71% - - 46° 55.5° 54.7° - - -
4/26 12:10am 181 1 G 2 55° 71% - - 46° 55.4° 54.9° - - -
4/26 12:00am 177 2 G 3 55° 71% - - 46° 69.7° 54.6° - - -
4/25 11:50pm 287 1 G 2 56° 70% - - 46° 69.7° 55.1° - - -
4/25 11:40pm 279 2 G 3 56° 70% - - 46° 69.7° 55.1° - - -
4/25 11:30pm 208 2 G 3 55° 71% - - 46° 69.7° 55.1° - - -
4/25 11:20pm 243 1 G 3 56° 68% - - 46° 69.7° 55.2° - - -
4/25 11:10pm 345 1 G 3 56° 68% - - 46° 69.7° 55.9° - - -
4/25 11:00pm 35 2 G 4 56° 67% - - 46° 69.7° 55.9° - - -
4/25 10:50pm 35 4 G 6 56° 68% - - 46° 69.7° 55.9° - - -
4/25 10:40pm 39 4 G 6 56° 67% - - 46° 69.7° 56.1° - - -
4/25 10:30pm 11 2 G 4 57° 65% - - 45° 69.7° 56.4° - - -
4/25 10:20pm 32 3 G 4 57° 65% - - 45° 69.7° 56.4° - - -
4/25 10:10pm 45 3 G 5 57° 65% - - 46° 69.7° 56.4° - - -
4/25 10:00pm 8 0 G 1 57° 66% - - 46° 69.7° 56.4° - - -
4/25 9:50pm 358 2 G 5 57° 66% - - 46° 69.7° 56.4° - - -
4/25 9:40pm 41 5 G 6 58° 63% - - 45° 69.7° 56.7° - - -
4/25 9:30pm 63 4 G 4 58° 61% - - 45° 69.7° 57.2° - - -
4/25 9:20pm 73 4 G 5 58° 61% - - 45° 69.7° 57.2° - - -
4/25 9:10pm 93 4 G 5 59° 60% - - 45° 69.7° 57.2° - - -
4/25 9:00pm 85 2 G 3 59° 60% - - 45° 69.7° 57.2° - - -
4/25 8:50pm 91 2 G 4 59° 59% - - 45° 69.7° 57.2° - - -
4/25 8:40pm 96 2 G 3 60° 58% - - 45° 69.7° 57.2° - - -
4/25 8:30pm 308 2 G 4 61° 55% - - 44° 69.7° 57.2° - - -
4/25 8:20pm 199 1 G 3 60° 56% - - 44° 69.7° 57.2° - - -
4/25 8:10pm 87 2 G 4 61° 55% - - 45° 69.7° 57.2° - - -
4/25 8:00pm 283 1 G 3 61° 54% - - 44° 69.7° 57.2° - - -
4/25 7:50pm 272 1 G 2 62° 53% - - 44° 69.7° 57.2° - - -
4/25 7:40pm 246 1 G 3 62° 53% - - 44° 69.7° 57.2° - - -
4/25 7:30pm 288 2 G 5 62° 52% - - 44° 69.7° 57.2° - - -
4/25 7:20pm 304 5 G 6 62° 52% - - 44° 69.7° 57.2° - - -
4/25 7:10pm 304 8 G 11 63° 51% - - 44° 69.7° 57.2° - - -
4/25 7:00pm 286 4 G 7 63° 50% - - 44° 69.7° 57.2° - - -
4/25 6:50pm 298 4 G 7 63° 49% - - 44° 69.7° 57.2° - - -
4/25 6:40pm 290 6 G 9 64° 49% - - 44° 69.7° 57.2° - - -
4/25 6:30pm 289 5 G 8 64° 49% - - 45° 69.7° 57.2° - - -
4/25 6:20pm 290 5 G 10 64° 50% - - 45° 69.7° 57.2° - - -
4/25 6:10pm 287 6 G 10 64° 50% - - 45° 69.7° 57.2° - - -
4/25 6:00pm 289 6 G 12 65° 50% - - 46° 69.7° 57.2° - - -
4/25 5:50pm 236 5 G 10 66° 53% - - 48° 69.7° 57.2° - - -
4/25 5:40pm 228 6 G 11 66° 56% - - 49° 69.7° 57.2° - - -
4/25 5:30pm 235 5 G 11 65° 58% - - 50° 69.7° 57.2° - - -
4/25 5:20pm 239 5 G 12 65° 59% - - 50° 69.7° 57.2° - - -
4/25 5:10pm 254 5 G 12 65° 59% - - 50° 69.7° 57.2° - - -
4/25 5:00pm 253 5 G 13 65° 59% - - 50° 69.7° 57.2° - - -
4/25 4:50pm 248 6 G 13 65° 57% - - 50° 69.7° 57.2° - - -
4/25 4:40pm 243 6 G 14 66° 55% - - 49° 69.7° 57.2° - - -
4/25 4:30pm 233 5 G 12 65° 57% - - 50° 69.7° 57.2° - - -
4/25 4:20pm 249 5 G 12 66° 56% - - 50° 69.7° 57.2° - - -
4/25 4:10pm 263 6 G 14 67° 54% - - 49° 69.7° 57.2° - - -
4/25 4:00pm 260 6 G 15 67° 54% - - 50° 69.7° 57.2° - - -
4/25 3:50pm 275 7 G 14 67° 53% - - 50° 69.7° 57.2° - - -
4/25 3:40pm 239 6 G 19 68° 52% - - 50° 69.7° 57.2° - - -
4/25 3:30pm 242 6 G 14 68° 52% - - 49° 69.7° 57.2° - - -
4/25 3:20pm 254 6 G 13 67° 53% - - 49° 69.7° 57.2° - - -
4/25 3:10pm 262 6 G 12 67° 53% - - 50° 69.7° 57.2° - - -
4/25 3:00pm 232 5 G 11 67° 53% - - 50° 69.7° 57.2° - - -
4/25 2:50pm 223 6 G 11 67° 54% - - 50° 69.7° 57.2° - - -
4/25 2:40pm 241 5 G 13 68° 53% - - 50° 69.7° 57.2° - - -
4/25 2:30pm 237 7 G 15 68° 52% - - 50° 69.7° 57.2° - - -
4/25 2:20pm 226 7 G 16 67° 54% - - 50° 69.7° 57.2° - - -
4/25 2:10pm 219 8 G 14 68° 53% - - 50° 69.7° 57.2° - - -
4/25 2:00pm 237 5 G 14 68° 51% - - 49° 69.7° 57.2° - - -
4/25 1:50pm 231 7 G 15 69° 49% - - 49° 69.7° 57.2° - - -
4/25 1:40pm 212 8 G 14 68° 51% - - 49° 69.7° 57.2° - - -
4/25 1:30pm 208 9 G 17 67° 52% - - 49° 69.7° 57.2° - - -
4/25 1:20pm 224 7 G 15 69° 49% - - 49° 69.7° 57.2° - - -
4/25 1:10pm 242 5 G 11 68° 51% - - 49° 69° 57.2° - - -
4/25 1:00pm 207 10 G 17 66° 55% - - 50° 69° 57.2° - - -
4/25 12:50pm 210 9 G 16 66° 54% - - 50° 69° 57.2° - - -
4/25 12:40pm 226 8 G 15 67° 52% - - 49° 69° 57.2° - - -
4/25 12:30pm 226 6 G 13 68° 50% - - 49° 69° 57.2° - - -
4/25 12:20pm 260 6 G 14 68° 49% - - 48° 69° 57.2° - - -
4/25 12:10pm 224 8 G 16 68° 49% - - 48° 69° 57.2° - - -
4/25 12:00pm 220 7 G 13 68° 50% - - 48° 68.6° 57.2° - - -
4/25 11:50am 217 8 G 16 67° 51% - - 49° 68.6° 57.2° - - -
4/25 11:40am 205 5 G 13 67° 50% - - 48° 68.6° 57.2° - - -
4/25 11:30am 244 5 G 12 68° 50% - - 48° 68.6° 57.2° - - -
4/25 11:20am 227 6 G 12 67° 52% - - 49° 68.6° 57.2° - - -
4/25 11:10am 268 5 G 12 67° 48% - - 47° 68.5° 57.2° - - -
4/25 11:00am 250 5 G 10 67° 50% - - 48° 68.5° 57.2° - - -
4/25 10:50am 226 4 G 13 68° 47% - - 47° 68.5° 57.2° - - -
4/25 10:40am 249 4 G 10 66° 50% - - 47° 67.9° 57.2° - - -
4/25 10:30am 236 5 G 10 65° 53% - - 48° 66.5° 57.2° - - -
4/25 10:20am 264 6 G 10 66° 55% - - 49° 66.5° 57.2° - - -
4/25 10:10am 253 3 G 9 65° 55% - - 49° 66.4° 57.2° - - -
4/25 10:00am 226 4 G 7 65° 56% - - 49° 65° 57.2° - - -
4/25 9:50am 262 4 G 7 63° 61% - - 50° 64.4° 57.2° - - -
4/25 9:40am 262 5 G 11 64° 61% - - 50° 64.4° 57.2° - - -
4/25 9:30am 252 4 G 8 62° 66% - - 51° 63.6° 57.2° - - -
4/25 9:20am 247 4 G 9 61° 71% - - 52° 62.9° 57.2° - - -
4/25 9:10am 248 5 G 10 61° 71% - - 52° 62.9° 57.2° - - -
4/25 9:00am 280 5 G 12 62° 69% - - 51° 62.9° 57.2° - - -
4/25 8:50am 277 4 G 9 61° 69% - - 51° 62.9° 57.2° - - -
4/25 8:40am 260 3 G 6 62° 67% - - 51° 62.9° 57.2° - - -
4/25 8:30am 248 3 G 9 62° 70% - - 52° 62.5° 57.2° - - -
4/25 8:20am 249 3 G 6 62° 71% - - 52° 62° 57.2° - - -
4/25 8:10am 283 1 G 3 60° 77% - - 53° 61.8° 57.2° - - -
4/25 8:00am 312 4 G 7 59° 82% - - 53° 59.4° 57.2° - - -
4/25 7:50am 280 3 G 5 59° 84% - - 54° 59.2° 57.2° - - -
4/25 7:40am 247 3 G 6 58° 85% - - 54° 58.7° 57.2° - - -
4/25 7:30am 240 3 G 7 58° 84% - - 53° 58.7° 57.2° - - -
4/25 7:20am 200 2 G 5 58° 83% - - 53° 58.7° 57.2° - - -
4/25 7:10am 226 2 G 5 58° 84% - - 53° 58.5° 57.2° - - -
4/25 7:00am 199 3 G 7 58° 85% - - 53° 58.4° 57.2° - - -
4/25 6:50am 219 3 G 6 58° 87% - - 54° 58.4° 57.2° - - -
4/25 6:40am 242 1 G 4 58° 86% - - 54° 58.4° 57.2° - - -
4/25 6:30am 241 3 G 5 58° 85% - - 53° 58.4° 57.2° - - -
4/25 6:20am 243 2 G 6 57° 87% - - 54° 58.4° 57.2° - - -
4/25 6:10am 242 1 G 5 58° 85% - - 53° 58.4° 57.3° - - -
4/25 6:00am 220 4 G 6 58° 84% - - 53° 58.4° 57.3° - - -
4/25 5:50am 215 3 G 7 58° 83% - - 53° 58.4° 57.3° - - -
4/25 5:40am 221 4 G 7 58° 82% - - 52° 58.4° 57.3° - - -
4/25 5:30am 194 3 G 9 58° 82% - - 52° 58.4° 57.3° - - -
4/25 5:20am 189 3 G 5 58° 81% - - 52° 58.4° 57.3° - - -
4/25 5:10am 213 3 G 7 58° 81% - - 52° 58.4° 57.3° - - -
4/25 5:00am 197 3 G 5 58° 81% - - 52° 58.4° 57.3° - - -
4/25 4:50am 196 4 G 6 58° 81% - - 52° 58.4° 57.3° - - -
4/25 4:40am 209 4 G 8 58° 82% - - 52° 58.4° 57.3° - - -
4/25 4:30am 227 3 G 6 58° 82% - - 52° 58.4° 57.3° - - -
4/25 4:20am 213 2 G 4 58° 81% - - 52° 58.4° 57.3° - - -
4/25 4:10am 183 2 G 5 58° 81% - - 52° 58.4° 57.3° - - -
4/25 4:00am 165 4 G 5 58° 80% - - 52° 58.4° 57.3° - - -
4/25 3:50am 172 5 G 9 58° 80% - - 52° 58.4° 57.3° - - -
4/25 3:40am 177 6 G 9 58° 80% - - 52° 58.4° 57.3° - - -
4/25 3:30am 175 5 G 9 58° 81% - - 52° 58.4° 57.3° - - -
4/25 3:20am 172 6 G 10 58° 82% - - 52° 58.4° 57.3° - - -
4/25 3:10am 189 7 G 11 58° 82% - - 52° 58.4° 57.3° - - -
4/25 3:00am 198 7 G 13 58° 84% - - 53° 58.4° 57.3° - - -
4/25 2:50am 210 5 G 8 57° 85% - - 53° 58.4° 57.3° - - -
4/25 2:40am 217 4 G 9 58° 85% - - 53° 58.4° 57.4° - - -
4/25 2:30am 233 4 G 10 58° 85% - - 53° 58.4° 57.4° - - -
4/25 2:20am 213 6 G 10 58° 85% - - 53° 58.4° 57.4° - - -
4/25 2:10am 212 5 G 11 58° 84% - - 53° 58.4° 57.4° - - -
4/25 2:00am 216 3 G 7 58° 80% - - 52° 58.4° 57.4° - - -
4/25 1:50am 220 5 G 8 58° 79% - - 52° 58.4° 57.4° - - -
4/25 1:40am 206 5 G 8 58° 79% - - 52° 58.4° 57.4° - - -
4/25 1:30am 211 5 G 8 58° 78% - - 52° 58.4° 57.4° - - -
4/25 1:20am 241 2 G 6 58° 78% - - 51° 58.4° 57.4° - - -
4/25 1:10am 197 6 G 12 58° 78% - - 51° 58.3° 57.4° - - -
4/25 1:00am 171 6 G 10 58° 79% - - 52° 58.2° 57.4° - - -
4/25 12:50am 169 5 G 9 58° 79% - - 52° 58.2° 57.4° - - -
4/25 12:40am 176 3 G 5 58° 78% - - 51° 58.2° 57.4° - - -
4/25 12:30am 202 6 G 10 58° 80% - - 52° 58° 57.4° - - -
4/25 12:20am 186 10 G 15 58° 79% - - 51° 58° 57.4° - - -
4/25 12:10am 181 6 G 11 58° 84% - - 53° 57.8° 57.4° - - -
4/25 12:00am 197 6 G 10 57° 87% - - 54° 70.5° 54.9° - - -
4/24 11:50pm 225 4 G 9 58° 86% - - 54° 70.5° 54.9° - - -
4/24 11:40pm 264 5 G 10 58° 84% - - 53° 70.5° 54.9° - - -
4/24 11:30pm 210 6 G 10 58° 79% - - 52° 70.5° 54.9° - - -
4/24 11:20pm 205 5 G 8 58° 77% - - 51° 70.5° 54.9° - - -
4/24 11:10pm 196 5 G 8 58° 78% - - 51° 70.5° 54.9° - - -
4/24 11:00pm 207 6 G 8 58° 76% - - 51° 70.5° 54.9° - - -
4/24 10:50pm 211 6 G 13 58° 77% - - 51° 70.5° 54.9° - - -
4/24 10:40pm 206 6 G 11 58° 82% - - 53° 70.5° 54.9° - - -
4/24 10:30pm 207 6 G 9 58° 84% - - 53° 70.5° 54.9° - - -
4/24 10:20pm 202 5 G 7 58° 90% - - 55° 70.5° 54.9° - - -
4/24 10:10pm 216 3 G 6 58° 95% - - 57° 70.5° 54.9° - - -
4/24 10:00pm 254 2 G 6 58° 95% - - 57° 70.5° 54.9° - - -
4/24 9:50pm 230 2 G 6 58° 94% - - 56° 70.5° 54.9° - - -
4/24 9:40pm 263 2 G 6 58° 94% - - 56° 70.5° 54.9° - - -
4/24 9:30pm 267 3 G 5 58° 95% - - 56° 70.5° 54.9° - - -
4/24 9:20pm 246 3 G 5 58° 95% - - 57° 70.5° 54.9° - - -
4/24 9:10pm 220 4 G 8 58° 93% - - 56° 70.5° 54.9° - - -
4/24 9:00pm 209 5 G 8 58° 94% - - 57° 70.5° 54.9° - - -
4/24 8:50pm 207 4 G 7 58° 96% - - 57° 70.5° 54.9° - - -
4/24 8:40pm 208 4 G 8 59° 94% - - 57° 70.5° 54.9° - - -
4/24 8:30pm 199 4 G 7 59° 89% - - 55° 70.5° 54.9° - - -
4/24 8:20pm 206 5 G 7 59° 86% - - 55° 70.5° 54.9° - - -
4/24 8:10pm 214 4 G 7 59° 86% - - 55° 70.5° 54.9° - - -
4/24 8:00pm 218 3 G 8 59° 85% - - 54° 70.5° 54.9° - - -
4/24 7:50pm 221 3 G 10 59° 83% - - 54° 70.5° 54.9° - - -
4/24 7:40pm 208 5 G 9 59° 83% - - 54° 70.5° 54.9° - - -
4/24 7:30pm 207 6 G 9 59° 82% - - 54° 70.5° 54.9° - - -
4/24 7:20pm 208 4 G 9 60° 81% - - 54° 70.5° 54.9° - - -
4/24 7:10pm 225 3 G 7 60° 80% - - 54° 70.5° 54.9° - - -
4/24 7:00pm 244 3 G 7 61° 77% - - 54° 70.5° 54.9° - - -
4/24 6:50pm 252 3 G 8 61° 77% - - 54° 70.5° 54.9° - - -
4/24 6:40pm 272 5 G 9 61° 76% - - 54° 70.5° 54.9° - - -
4/24 6:30pm 250 3 G 8 62° 73% - - 53° 70.5° 54.9° - - -
4/24 6:20pm 253 2 G 8 62° 73% - - 54° 70.5° 54.9° - - -
4/24 6:10pm 249 3 G 8 63° 70% - - 53° 70.5° 54.9° - - -
4/24 6:00pm 252 3 G 10 64° 70% - - 54° 70.5° 54.9° - - -